Bea Schulte — VRGA2 — position and weather

sailwx.info

Track history (hours):
 
Tides and Currents Weather Stations Pressure Air Temp Water Temp Dewpoint Dewpoint Depression Visibility Wind Speed Wind Dir Waves Ship Positions

Bea Schulte

Last reported at 2017-Dec-11 13:34 UTC. Time now 2017-Dec-12 06:40 UTC.
Position N 36°49' W 075°46'.

Length 264 m; draft 9.5 m.

Type: Ship (hazmat cat A). MMSI: 477639500.

Date/timePositionNaut miles runAvg speedWind from/ knotsBaromVisibWave heightAir tempDewpointWater temp
2017-Dec-11 13:34N 36°49' W 075°46'1 9.8
2017-Dec-11 13:30N 36°49' W 075°47'5 9.9
2017-Dec-11 13:00N 36°52' W 075°52'5 9.6
2017-Dec-11 12:30N 36°55' W 075°56'5 9.8
2017-Dec-11 12:00N 36°57' W 076°02'815.5
2017-Dec-11 11:30N 36°60' W 076°11'714.7
2017-Dec-11 11:01N 36°58' W 076°20'3 5.7
2017-Dec-11 10:30N 36°55' W 076°20'0 0.0
2017-Dec-11 09:51N 36°55' W 076°20'0 0.0
2017-Dec-11 09:30N 36°55' W 076°20'0 0.0
2017-Dec-11 09:00N 36°55' W 076°20'0 0.0
2017-Dec-11 08:21N 36°55' W 076°20'0 0.0
2017-Dec-11 07:27N 36°55' W 076°20'0 0.0
2017-Dec-11 07:00N 36°55' W 076°20'0 0.0
2017-Dec-11 06:30N 36°55' W 076°20'0 0.0
2017-Dec-11 06:00N 36°55' W 076°20'0 0.0
2017-Dec-11 05:30N 36°55' W 076°20'0 0.0
2017-Dec-11 05:00N 36°55' W 076°20'0 0.0
2017-Dec-11 04:30N 36°55' W 076°20'0 0.0
2017-Dec-11 03:30N 36°55' W 076°20'0 0.0
2017-Dec-11 03:00N 36°55' W 076°20'0 0.0
2017-Dec-11 02:27N 36°55' W 076°20'0 0.0
2017-Dec-11 02:00N 36°55' W 076°20'0 0.0
2017-Dec-11 01:30N 36°55' W 076°20'0 0.0
2017-Dec-11 01:00N 36°55' W 076°20'0 0.0
2017-Dec-11 00:30N 36°55' W 076°20'0 0.0
2017-Dec-11 00:00N 36°55' W 076°20'0 0.0
2017-Dec-10 23:18N 36°55' W 076°20'0 0.0
2017-Dec-10 22:54N 36°55' W 076°20'0 0.0
2017-Dec-10 22:30N 36°55' W 076°20'0 0.0
2017-Dec-10 21:57N 36°55' W 076°20'0 0.0
2017-Dec-10 21:27N 36°55' W 076°20'0 0.0
2017-Dec-10 21:00N 36°55' W 076°20'0 0.0
2017-Dec-10 20:30N 36°55' W 076°20'0 0.0
2017-Dec-10 19:57N 36°55' W 076°20'0 0.0
2017-Dec-10 19:30N 36°55' W 076°20'0 0.0
2017-Dec-10 19:00N 36°55' W 076°20'0 0.0
2017-Dec-10 18:12N 36°55' W 076°20'0 0.0
2017-Dec-10 18:00N 36°55' W 076°20'0 0.0
2017-Dec-10 17:30N 36°55' W 076°20'0 0.9
2017-Dec-10 17:00N 36°56' W 076°20'4 7.3
2017-Dec-10 16:30N 36°59' W 076°19'710.4
2017-Dec-10 15:52N 36°59' W 076°11'616.9
2017-Dec-10 15:30N 36°58' W 076°03'611.1
2017-Dec-10 15:01N 36°56' W 075°57'4 8.2
2017-Dec-10 14:31N 36°53' W 075°53'4 7.8
2017-Dec-10 13:56N 36°52' W 075°47'1 1.3
2017-Dec-10 13:24N 36°52' W 075°47'0 0.7
2017-Dec-10 12:59N 36°52' W 075°47'2 4.9
2017-Dec-10 12:30N 36°50' W 075°46'  
2017-Dec-01 23:33N 17°42' W 061°10'117.5
2017-Dec-01 23:30N 17°42' W 061°09'  
Track history (hours):
 
Tides and Currents Weather Stations Pressure Air Temp Water Temp Dewpoint Dewpoint Depression Visibility Wind Speed Wind Dir Waves Ship Positions

Bea Schulte

Last reported at 2017-Dec-11 13:34 UTC. Time now 2017-Dec-12 06:40 UTC.
Position N 36°49' W 075°46'.

Length 264 m; draft 9.5 m.

Type: Ship (hazmat cat A). MMSI: 477639500.

Date/timePositionNaut miles runAvg speedWind from/ knotsBaromVisibWave heightAir tempDewpointWater temp
2017-Dec-11 13:34N 36°49' W 075°46'1 9.8
2017-Dec-11 13:30N 36°49' W 075°47'5 9.9
2017-Dec-11 13:00N 36°52' W 075°52'5 9.6
2017-Dec-11 12:30N 36°55' W 075°56'5 9.8
2017-Dec-11 12:00N 36°57' W 076°02'815.5
2017-Dec-11 11:30N 36°60' W 076°11'714.7
2017-Dec-11 11:01N 36°58' W 076°20'3 5.7
2017-Dec-11 10:30N 36°55' W 076°20'0 0.0
2017-Dec-11 09:51N 36°55' W 076°20'0 0.0
2017-Dec-11 09:30N 36°55' W 076°20'0 0.0
2017-Dec-11 09:00N 36°55' W 076°20'0 0.0
2017-Dec-11 08:21N 36°55' W 076°20'0 0.0
2017-Dec-11 07:27N 36°55' W 076°20'0 0.0
2017-Dec-11 07:00N 36°55' W 076°20'0 0.0
2017-Dec-11 06:30N 36°55' W 076°20'0 0.0
2017-Dec-11 06:00N 36°55' W 076°20'0 0.0
2017-Dec-11 05:30N 36°55' W 076°20'0 0.0
2017-Dec-11 05:00N 36°55' W 076°20'0 0.0
2017-Dec-11 04:30N 36°55' W 076°20'0 0.0
2017-Dec-11 03:30N 36°55' W 076°20'0 0.0
2017-Dec-11 03:00N 36°55' W 076°20'0 0.0
2017-Dec-11 02:27N 36°55' W 076°20'0 0.0
2017-Dec-11 02:00N 36°55' W 076°20'0 0.0
2017-Dec-11 01:30N 36°55' W 076°20'0 0.0
2017-Dec-11 01:00N 36°55' W 076°20'0 0.0
2017-Dec-11 00:30N 36°55' W 076°20'0 0.0
2017-Dec-11 00:00N 36°55' W 076°20'0 0.0
2017-Dec-10 23:18N 36°55' W 076°20'0 0.0
2017-Dec-10 22:54N 36°55' W 076°20'0 0.0
2017-Dec-10 22:30N 36°55' W 076°20'0 0.0
2017-Dec-10 21:57N 36°55' W 076°20'0 0.0
2017-Dec-10 21:27N 36°55' W 076°20'0 0.0
2017-Dec-10 21:00N 36°55' W 076°20'0 0.0
2017-Dec-10 20:30N 36°55' W 076°20'0 0.0
2017-Dec-10 19:57N 36°55' W 076°20'0 0.0
2017-Dec-10 19:30N 36°55' W 076°20'0 0.0
2017-Dec-10 19:00N 36°55' W 076°20'0 0.0
2017-Dec-10 18:12N 36°55' W 076°20'0 0.0
2017-Dec-10 18:00N 36°55' W 076°20'0 0.0
2017-Dec-10 17:30N 36°55' W 076°20'0 0.9
2017-Dec-10 17:00N 36°56' W 076°20'4 7.3
2017-Dec-10 16:30N 36°59' W 076°19'710.4
2017-Dec-10 15:52N 36°59' W 076°11'616.9
2017-Dec-10 15:30N 36°58' W 076°03'611.1
2017-Dec-10 15:01N 36°56' W 075°57'4 8.2
2017-Dec-10 14:31N 36°53' W 075°53'4 7.8
2017-Dec-10 13:56N 36°52' W 075°47'1 1.3
2017-Dec-10 13:24N 36°52' W 075°47'0 0.7
2017-Dec-10 12:59N 36°52' W 075°47'2 4.9
2017-Dec-10 12:30N 36°50' W 075°46'  
2017-Dec-01 23:33N 17°42' W 061°10'117.5
2017-Dec-01 23:30N 17°42' W 061°09'  

Dump ship's entire track history